Hidden Valley, Nevada
Current Conditions -  °F | °C
As of 12:55 AM on Sunday 26 Oct 2014 (Local Time) from KRNO Reporting Station
Scattered Clouds Scattered Clouds  
Wind Chill: 50°   Ceiling: Unl
Heat Index: 50°   Visibility: 10mi
Dew Point: 30°   Wind: 12mph
Humidity: 46%   Direction: 140°SE
Pressure: 30.07"   Gusts: NA
Location:  39.4944°N, 119.746°W
Report Text: KRNO 260755Z 14010KT 120V200 10SM SCT070 10/M01 A3007 RMK AO2 SLP155 T01001011 401940089
Loading
Personal Weather Stations






























Interactive Weather Map
Tropical Storm Tracking
New forecast layout! Learn more

10-Day Weather Forecast

Advertisements
Track Severe Weather on mobile